createdAt,value
2023-09-17T00:01:02.798Z,15.05
2023-09-17T00:05:02.938Z,16.85
2023-09-17T00:09:05.743Z,19.08
2023-09-17T00:13:09.029Z,17.95
2023-09-17T00:17:11.148Z,19.08
2023-09-17T00:21:11.224Z,17.23
2023-09-17T00:25:12.154Z,17.73
2023-09-17T00:29:14.676Z,19.02
2023-09-17T00:33:18.418Z,19.23
2023-09-17T00:37:19.551Z,20.42
2023-09-17T00:41:19.661Z,17.95
2023-09-17T00:45:19.766Z,19.48
2023-09-17T00:49:29.830Z,20.25
2023-09-17T00:53:31.105Z,27.20
2023-09-17T00:57:31.335Z,17.55
2023-09-17T01:01:33.686Z,18.05
2023-09-17T01:05:43.912Z,16.00
2023-09-17T01:09:44.561Z,15.52
2023-09-17T01:13:59.731Z,13.50
2023-09-17T01:18:05.843Z,14.38
2023-09-17T01:22:13.182Z,16.08
2023-09-17T01:26:19.319Z,12.10
2023-09-17T01:30:22.383Z,14.73
2023-09-17T01:34:24.878Z,13.85
2023-09-17T01:38:37.668Z,12.55
2023-09-17T01:42:40.044Z,16.98
2023-09-17T01:46:47.878Z,15.43
2023-09-17T01:50:48.739Z,15.27
2023-09-17T01:54:48.385Z,14.40
2023-09-17T01:58:49.540Z,14.40
2023-09-17T02:02:55.404Z,16.13
2023-09-17T02:06:57.028Z,17.10
2023-09-17T02:10:59.453Z,16.75
2023-09-17T02:15:10.784Z,16.33
2023-09-17T02:19:28.312Z,13.23
2023-09-17T02:23:58.206Z,16.48
2023-09-17T02:27:59.789Z,16.35
2023-09-17T02:32:00.542Z,17.80
2023-09-17T02:36:07.066Z,11.57
2023-09-17T02:40:10.943Z,17.08
2023-09-17T02:44:12.100Z,14.95
2023-09-17T02:48:13.019Z,15.90
2023-09-17T02:52:18.956Z,18.60
2023-09-17T02:56:19.777Z,13.73
2023-09-17T03:00:22.530Z,14.68
2023-09-17T03:04:22.573Z,15.55
2023-09-17T03:08:24.886Z,16.00
2023-09-17T03:12:44.550Z,17.60
2023-09-17T03:25:11.443Z,14.68
2023-09-17T03:29:18.746Z,18.67
2023-09-17T03:33:53.986Z,17.85
2023-09-17T03:38:03.636Z,17.40
2023-09-17T03:46:44.397Z,14.82
2023-09-17T03:50:45.068Z,14.95
2023-09-17T03:54:44.500Z,14.93
2023-09-17T03:58:46.849Z,18.20
2023-09-17T04:02:50.728Z,16.30
2023-09-17T04:06:50.993Z,21.42
2023-09-17T04:10:51.472Z,20.10
2023-09-17T04:14:56.718Z,17.48
2023-09-17T04:18:57.281Z,16.17
2023-09-17T04:23:04.924Z,14.57
2023-09-17T04:27:07.814Z,18.25
2023-09-17T04:31:10.506Z,15.35
2023-09-17T04:35:12.517Z,16.38
2023-09-17T04:39:21.007Z,16.80
2023-09-17T04:43:22.388Z,13.57
2023-09-17T04:47:25.559Z,13.55
2023-09-17T04:51:25.759Z,15.52
2023-09-17T04:55:29.235Z,18.02
2023-09-17T04:59:32.356Z,16.45
2023-09-17T05:03:43.847Z,17.02
2023-09-17T05:07:47.914Z,17.10
2023-09-17T05:11:47.663Z,16.15
2023-09-17T05:15:48.430Z,13.82
2023-09-17T05:20:02.145Z,18.38
2023-09-17T05:24:02.761Z,15.77
2023-09-17T05:28:07.636Z,16.23
2023-09-17T05:32:13.595Z,13.77
2023-09-17T05:36:23.396Z,16.25
2023-09-17T05:40:44.558Z,20.67
2023-09-17T05:45:14.614Z,14.43
2023-09-17T05:49:15.396Z,16.02
2023-09-17T05:53:24.601Z,16.27
2023-09-17T05:57:27.669Z,14.38
2023-09-17T06:01:31.168Z,13.23
2023-09-17T06:05:51.650Z,10.70
2023-09-17T06:10:20.604Z,17.50
2023-09-17T06:24:48.547Z,16.52
2023-09-17T06:28:56.539Z,14.55
2023-09-17T06:32:56.849Z,16.08
2023-09-17T06:36:57.483Z,15.25
2023-09-17T06:40:56.810Z,19.85
2023-09-17T06:44:58.619Z,14.57
2023-09-17T06:48:58.274Z,13.88
2023-09-17T06:52:58.070Z,14.32
2023-09-17T06:56:57.732Z,13.18
2023-09-17T07:00:59.450Z,15.63
2023-09-17T07:05:01.476Z,15.20
2023-09-17T07:09:01.252Z,12.90
2023-09-17T07:13:00.930Z,14.63
2023-09-17T07:17:07.233Z,14.40
2023-09-17T07:21:07.077Z,14.23
2023-09-17T07:25:07.253Z,13.38
2023-09-17T07:29:07.023Z,12.93
2023-09-17T07:33:09.406Z,14.13
2023-09-17T07:37:09.276Z,15.75
2023-09-17T07:41:08.963Z,14.07
2023-09-17T07:45:09.936Z,13.95
2023-09-17T07:49:11.834Z,17.40
2023-09-17T07:53:11.485Z,12.60
2023-09-17T07:57:13.460Z,19.20
2023-09-17T08:01:15.242Z,20.25
2023-09-17T08:05:17.167Z,11.32
2023-09-17T08:09:16.829Z,9.52
2023-09-17T08:13:17.144Z,11.10
2023-09-17T08:17:17.385Z,11.95
2023-09-17T08:21:19.324Z,11.55
2023-09-17T08:25:19.209Z,13.68
2023-09-17T08:29:20.976Z,10.10
2023-09-17T08:33:23.347Z,12.10
2023-09-17T08:37:25.507Z,34.78
2023-09-17T08:41:25.698Z,10.55
2023-09-17T08:45:26.839Z,15.77
2023-09-17T08:49:26.704Z,10.43
2023-09-17T08:53:31.967Z,10.63
2023-09-17T08:57:36.299Z,10.65
2023-09-17T09:01:39.655Z,14.20
2023-09-17T09:05:39.505Z,12.98
2023-09-17T09:09:41.887Z,9.63
2023-09-17T09:13:41.789Z,10.27
2023-09-17T09:17:42.331Z,12.20
2023-09-17T09:21:42.224Z,9.15
2023-09-17T09:25:44.073Z,12.07
2023-09-17T09:29:45.410Z,10.70
2023-09-17T09:33:45.462Z,8.65
2023-09-17T09:37:46.083Z,9.80
2023-09-17T09:41:47.906Z,8.90
2023-09-17T09:45:51.435Z,11.18
2023-09-17T12:58:23.827Z,5.20
2023-09-17T13:02:32.442Z,6.30
2023-09-17T13:06:33.931Z,7.28
2023-09-17T13:10:33.985Z,6.50
2023-09-17T13:14:38.596Z,6.88
2023-09-17T13:18:40.977Z,7.15
2023-09-17T13:22:40.879Z,5.40
2023-09-17T13:26:40.712Z,9.15
2023-09-17T13:30:44.368Z,7.55
2023-09-17T13:34:47.680Z,8.13
2023-09-17T13:38:49.130Z,5.88
2023-09-17T13:42:49.648Z,5.72
2023-09-17T13:46:51.320Z,7.68
2023-09-17T13:50:51.702Z,5.75
2023-09-17T13:54:51.614Z,6.18
2023-09-17T13:58:54.432Z,5.43
2023-09-17T14:02:56.234Z,6.93
2023-09-17T14:07:01.445Z,10.50
2023-09-17T14:11:15.530Z,11.15
2023-09-17T14:15:39.822Z,9.48
2023-09-17T14:20:20.637Z,7.97
2023-09-17T14:31:11.469Z,7.45
2023-09-17T14:34:21.652Z,5.88
2023-09-17T14:38:43.112Z,5.97
2023-09-17T14:52:55.113Z,5.20
2023-09-17T15:07:51.192Z,5.20
2023-09-17T15:20:52.657Z,9.23
2023-09-17T15:24:55.180Z,6.57
2023-09-17T15:29:15.617Z,9.13
2023-09-17T15:33:26.891Z,6.05
2023-09-17T15:37:31.412Z,8.20
2023-09-17T15:41:33.016Z,5.45
2023-09-17T15:45:32.964Z,8.48
2023-09-17T15:49:32.510Z,3.78
2023-09-17T15:53:33.341Z,10.88
2023-09-17T15:57:37.684Z,9.10
2023-09-17T16:01:39.666Z,4.78
2023-09-17T16:05:39.619Z,4.68
2023-09-17T16:09:39.364Z,8.15
2023-09-17T16:13:41.239Z,8.32
2023-09-17T16:17:41.093Z,7.45
2023-09-17T16:21:48.013Z,5.72
2023-09-17T16:25:47.675Z,9.00
2023-09-17T16:30:05.699Z,6.30
2023-09-17T16:34:07.753Z,6.45
2023-09-17T16:38:18.489Z,4.22
2023-09-17T19:51:34.913Z,8.20
2023-09-17T19:55:49.977Z,8.90
2023-09-17T19:59:51.454Z,12.43
2023-09-17T20:04:00.376Z,4.15
2023-09-17T20:12:17.240Z,7.50
2023-09-17T20:16:21.984Z,9.63
2023-09-17T20:20:24.205Z,4.95
2023-09-17T20:24:29.394Z,10.55
2023-09-17T20:28:34.402Z,10.98
2023-09-17T20:32:42.458Z,9.07
2023-09-17T20:36:48.945Z,8.85
2023-09-17T20:41:09.954Z,5.97
2023-09-17T20:45:19.664Z,6.75
2023-09-17T20:49:34.380Z,6.70
2023-09-17T20:54:26.999Z,5.07
2023-09-17T20:59:22.703Z,16.35
2023-09-17T21:03:35.784Z,9.35
2023-09-17T21:07:49.508Z,6.90
2023-09-17T21:12:05.374Z,7.38
2023-09-17T21:16:28.228Z,7.97
2023-09-17T21:20:59.891Z,5.68
2023-09-17T21:25:07.138Z,5.13
2023-09-17T21:29:21.708Z,5.32
2023-09-17T21:33:42.196Z,5.70
2023-09-17T21:38:04.492Z,7.03
2023-09-17T21:42:25.433Z,7.93
2023-09-17T21:46:51.787Z,8.77
2023-09-17T21:52:07.779Z,5.57
2023-09-17T21:57:09.054Z,7.05
2023-09-17T22:02:12.907Z,13.73
2023-09-17T22:24:15.679Z,6.28
2023-09-17T22:24:42.734Z,9.85
2023-09-17T22:29:39.181Z,7.68
2023-09-17T22:38:46.408Z,6.20
2023-09-17T22:43:03.642Z,11.10
2023-09-17T22:47:21.408Z,7.88
2023-09-17T22:51:35.336Z,6.70
2023-09-17T23:02:06.222Z,7.47
2023-09-17T23:06:50.800Z,6.35
